Time;durP1;ratioP1;P1;durP2;ratioP2;P2;SDS_P1;SDS_P2;PMS_P1;PMS_P2;Temp;Humidity;BMP_temperature;BMP_pressure;BME280_temperature;BME280_humidity;BME280_pressure;Samples;Min_cycle;Max_cycle;Signal;HPM_P1;HPM_P2
2023/04/08 00:00:58;;;;;;;8.23;7.97;;;21.20;53.80;;;;;;5114186;28;20477;-63
2023/04/08 00:03:25;;;;;;;7.97;7.70;;;21.20;53.80;;;;;;5113646;28;20544;-62
2023/04/08 00:05:52;;;;;;;7.73;7.57;;;21.20;53.80;;;;;;5114143;28;20445;-62
2023/04/08 00:08:19;;;;;;;7.60;7.40;;;21.20;53.80;;;;;;5113925;28;20488;-63
2023/04/08 00:10:47;;;;;;;7.70;7.40;;;21.10;53.80;;;;;;5113846;28;20910;-62
2023/04/08 00:13:14;;;;;;;8.00;7.80;;;21.10;53.90;;;;;;5113556;28;20528;-62
2023/04/08 00:15:41;;;;;;;8.00;7.80;;;21.10;53.90;;;;;;5113832;28;20925;-61
2023/04/08 00:18:08;;;;;;;7.87;7.67;;;21.10;53.90;;;;;;5113698;28;20445;-63
2023/04/08 00:20:35;;;;;;;8.20;8.00;;;21.10;53.80;;;;;;5113943;28;20671;-62
2023/04/08 00:23:02;;;;;;;8.43;8.23;;;21.10;53.90;;;;;;5102250;28;20489;-63
2023/04/08 00:25:29;;;;;;;7.90;7.70;;;21.10;53.90;;;;;;5093189;28;20485;-63
2023/04/08 00:27:57;;;;;;;7.90;7.70;;;21.10;53.90;;;;;;5093021;28;20525;-63
2023/04/08 00:30:26;;;;;;;8.00;7.80;;;21.10;53.90;;;;;;5093131;28;20640;-62
2023/04/08 00:32:53;;;;;;;7.23;7.13;;;21.10;54.00;;;;;;5093139;28;20446;-63
2023/04/08 00:35:20;;;;;;;8.00;7.80;;;21.10;54.50;;;;;;5092990;28;20506;-62
2023/04/08 00:37:46;;;;;;;7.70;7.50;;;21.10;54.00;;;;;;5092907;28;20478;-62
2023/04/08 00:40:13;;;;;;;7.40;7.27;;;21.10;54.00;;;;;;5092744;28;20521;-62
2023/04/08 00:42:40;;;;;;;7.97;7.73;;;21.10;54.00;;;;;;5092284;28;20525;-63
2023/04/08 00:45:10;;;;;;;7.67;7.37;;;21.10;54.00;;;;;;5092873;28;20473;-62
2023/04/08 00:47:37;;;;;;;7.73;7.53;;;21.10;54.10;;;;;;5092635;28;20478;-62
2023/04/08 00:50:04;;;;;;;7.10;7.00;;;21.10;54.10;;;;;;5092799;28;20509;-63
2023/04/08 00:52:31;;;;;;;7.20;7.10;;;21.10;54.10;;;;;;5092814;28;20478;-62
2023/04/08 00:54:58;;;;;;;7.57;7.47;;;21.10;54.10;;;;;;5092670;28;20502;-62
2023/04/08 00:57:25;;;;;;;7.17;7.00;;;21.10;54.20;;;;;;5092456;28;20482;-63
2023/04/08 00:59:52;;;;;;;7.60;7.40;;;21.10;54.10;;;;;;5092645;28;20478;-62
2023/04/08 01:02:29;;;;;;;8.50;8.20;;;21.10;54.10;;;;;;5092636;28;20474;-62
2023/04/08 01:05:01;;;;;;;7.10;7.00;;;21.00;54.00;;;;;;5092537;28;20466;-63
2023/04/08 01:07:31;;;;;;;7.63;7.43;;;21.00;54.10;;;;;;5093473;28;20550;-63
2023/04/08 01:10:02;;;;;;;7.40;7.30;;;21.10;54.20;;;;;;5092388;28;20564;-63
2023/04/08 01:12:32;;;;;;;7.37;7.27;;;21.00;54.10;;;;;;5092523;28;20504;-62
2023/04/08 01:15:03;;;;;;;7.33;7.13;;;21.00;54.10;;;;;;5092301;28;20977;-62
2023/04/08 01:17:33;;;;;;;7.20;7.00;;;21.00;54.10;;;;;;5092179;28;20533;-62
2023/04/08 01:20:03;;;;;;;7.70;7.50;;;21.00;54.10;;;;;;5092331;28;20522;-63
2023/04/08 01:22:40;;;;;;;7.80;7.60;;;21.00;54.10;;;;;;5092232;28;20987;-62
2023/04/08 01:25:15;;;;;;;7.87;7.67;;;21.00;54.10;;;;;;5092239;28;20493;-62
2023/04/08 01:27:44;;;;;;;7.13;7.03;;;21.00;54.10;;;;;;5092109;28;20457;-63
2023/04/08 01:30:12;;;;;;;7.83;7.60;;;21.00;54.10;;;;;;5092065;28;20514;-63
2023/04/08 01:32:40;;;;;;;7.50;7.30;;;21.00;54.10;;;;;;5092095;28;20916;-63
2023/04/08 01:35:09;;;;;;;7.93;7.73;;;21.00;54.20;;;;;;5091949;28;20505;-62
2023/04/08 01:37:37;;;;;;;7.20;7.10;;;21.00;54.20;;;;;;5091886;28;20446;-62
2023/04/08 01:40:07;;;;;;;7.07;6.97;;;21.00;54.20;;;;;;5091918;28;20470;-62
2023/04/08 01:42:35;;;;;;;6.90;6.80;;;21.00;54.20;;;;;;5091995;28;20474;-62
2023/04/08 01:45:04;;;;;;;7.47;7.17;;;21.00;54.30;;;;;;5091791;28;20505;-62
2023/04/08 01:47:32;;;;;;;7.10;7.00;;;21.00;54.30;;;;;;5091768;28;20526;-62
2023/04/08 01:50:01;;;;;;;7.13;6.93;;;21.00;54.20;;;;;;5091764;28;20566;-62
2023/04/08 01:52:30;;;;;;;7.20;7.00;;;21.00;54.30;;;;;;5091537;28;20892;-62
2023/04/08 01:54:57;;;;;;;7.57;7.20;;;21.00;54.30;;;;;;5091662;28;20890;-62
2023/04/08 01:57:27;;;;;;;6.90;6.80;;;21.00;54.30;;;;;;5091621;28;20521;-63
2023/04/08 01:59:59;;;;;;;7.40;7.20;;;21.00;54.30;;;;;;5091704;28;20481;-63
2023/04/08 02:02:29;;;;;;;6.80;6.70;;;21.00;54.30;;;;;;5091734;28;20481;-62
2023/04/08 02:04:56;;;;;;;7.57;7.43;;;21.00;54.30;;;;;;5108930;28;20503;-62
2023/04/08 02:07:23;;;;;;;7.80;7.60;;;21.00;54.30;;;;;;5111730;28;20449;-62
2023/04/08 02:09:51;;;;;;;7.70;7.50;;;20.90;54.20;;;;;;5111864;28;20484;-62
2023/04/08 02:12:18;;;;;;;7.50;7.30;;;20.90;54.20;;;;;;5111663;28;20488;-62
2023/04/08 02:14:46;;;;;;;7.90;7.70;;;21.00;54.30;;;;;;5111830;28;20893;-62
2023/04/08 02:17:18;;;;;;;7.13;6.93;;;21.00;54.40;;;;;;5111776;28;20871;-62
2023/04/08 02:19:52;;;;;;;7.50;7.30;;;21.00;54.40;;;;;;5111955;28;20506;-63
2023/04/08 02:22:31;;;;;;;7.60;7.40;;;20.90;54.30;;;;;;5111529;28;20485;-62
2023/04/08 02:25:01;;;;;;;7.73;7.57;;;20.90;54.40;;;;;;5111727;28;20547;-62
2023/04/08 02:27:33;;;;;;;7.70;7.47;;;20.90;54.30;;;;;;5111693;28;20936;-61
2023/04/08 02:30:04;;;;;;;7.83;7.63;;;20.90;54.40;;;;;;5111660;28;20477;-62
2023/04/08 02:32:32;;;;;;;7.50;7.30;;;21.00;54.50;;;;;;5111807;28;20449;-61
2023/04/08 02:35:02;;;;;;;7.40;7.20;;;20.90;54.40;;;;;;5111257;28;20573;-62
2023/04/08 02:37:29;;;;;;;7.57;7.37;;;20.90;54.40;;;;;;5111665;28;20826;-62
2023/04/08 02:39:56;;;;;;;7.63;7.37;;;20.90;54.40;;;;;;5111637;28;20480;-62
2023/04/08 02:42:23;;;;;;;7.50;7.30;;;20.90;54.40;;;;;;5111683;28;20536;-62
2023/04/08 02:44:51;;;;;;;7.50;7.30;;;20.90;54.40;;;;;;5111667;28;20519;-62
2023/04/08 02:47:18;;;;;;;7.27;7.17;;;20.90;54.40;;;;;;5111256;28;20477;-62
2023/04/08 02:49:45;;;;;;;8.20;8.00;;;20.90;55.00;;;;;;5111697;28;20525;-62
2023/04/08 02:52:13;;;;;;;7.70;7.50;;;21.00;54.60;;;;;;5111480;28;20890;-61
2023/04/08 02:54:40;;;;;;;7.47;7.30;;;20.90;54.50;;;;;;5111443;28;20489;-62
2023/04/08 02:57:07;;;;;;;7.90;7.70;;;20.90;54.50;;;;;;5111445;28;20477;-62
2023/04/08 02:59:36;;;;;;;7.80;7.60;;;20.90;54.40;;;;;;5111127;28;20540;-62
2023/04/08 03:02:03;;;;;;;7.80;7.60;;;20.90;54.40;;;;;;5111457;28;20448;-62
2023/04/08 03:04:30;;;;;;;7.70;7.50;;;21.00;54.60;;;;;;5112476;28;20504;-62
2023/04/08 03:06:57;;;;;;;8.20;7.90;;;20.90;54.50;;;;;;5115083;28;20847;-62
2023/04/08 03:09:25;;;;;;;7.70;7.50;;;20.90;54.50;;;;;;5115030;28;20860;-62
2023/04/08 03:11:53;;;;;;;7.90;7.70;;;20.90;54.50;;;;;;5114732;28;20564;-62
2023/04/08 03:14:21;;;;;;;7.67;7.47;;;20.90;54.50;;;;;;5114798;28;20946;-61
2023/04/08 03:16:48;;;;;;;7.83;7.63;;;20.90;54.60;;;;;;5114795;28;20441;-62
2023/04/08 03:19:15;;;;;;;8.23;8.03;;;20.90;54.50;;;;;;5115068;28;20920;-63
2023/04/08 03:21:42;;;;;;;7.30;7.20;;;20.90;54.60;;;;;;5114633;28;20532;-62
2023/04/08 03:24:08;;;;;;;7.53;7.33;;;20.90;54.60;;;;;;5114822;28;20501;-62
2023/04/08 03:26:37;;;;;;;7.87;7.57;;;20.90;54.60;;;;;;5114821;28;20525;-62
2023/04/08 03:29:05;;;;;;;6.70;6.60;;;20.90;54.50;;;;;;5114693;28;20529;-62
2023/04/08 03:31:32;;;;;;;7.20;7.10;;;20.90;54.60;;;;;;5114789;28;20855;-62
2023/04/08 03:33:59;;;;;;;7.20;7.10;;;20.90;54.60;;;;;;5114195;28;20563;-62
2023/04/08 03:36:26;;;;;;;7.43;7.23;;;20.90;54.60;;;;;;5114691;28;20537;-62
2023/04/08 03:38:53;;;;;;;7.80;7.60;;;20.90;54.60;;;;;;5114411;28;20449;-63
2023/04/08 03:41:21;;;;;;;8.00;7.70;;;20.90;54.60;;;;;;5114542;28;20477;-62
2023/04/08 03:43:49;;;;;;;7.70;7.50;;;20.90;54.50;;;;;;5114380;28;20971;-62
2023/04/08 03:46:16;;;;;;;7.40;7.20;;;20.90;54.60;;;;;;5114190;28;20488;-62
2023/04/08 03:48:43;;;;;;;7.50;7.30;;;20.90;54.60;;;;;;5114246;28;20983;-62
2023/04/08 03:51:09;;;;;;;8.07;7.87;;;20.90;54.60;;;;;;5114471;28;20568;-62
2023/04/08 03:53:36;;;;;;;7.00;6.90;;;20.90;54.50;;;;;;5114268;28;20540;-62
2023/04/08 03:56:03;;;;;;;7.57;7.37;;;20.90;54.60;;;;;;5114305;28;20532;-63
2023/04/08 03:58:30;;;;;;;8.27;8.07;;;20.90;54.60;;;;;;5113693;28;20456;-62
2023/04/08 04:00:59;;;;;;;8.27;8.07;;;20.90;54.60;;;;;;5114226;28;20437;-61
2023/04/08 04:03:26;;;;;;;7.23;7.13;;;20.90;54.60;;;;;;5114155;28;20560;-62
2023/04/08 04:05:53;;;;;;;7.80;7.60;;;20.90;54.70;;;;;;5113819;28;20470;-61
2023/04/08 04:08:20;;;;;;;8.00;7.80;;;20.90;54.70;;;;;;5113860;28;20536;-62
2023/04/08 04:10:47;;;;;;;7.60;7.40;;;20.90;54.70;;;;;;5114062;28;20488;-62
2023/04/08 04:13:13;;;;;;;7.47;7.27;;;20.90;54.70;;;;;;5113947;28;20469;-62
2023/04/08 04:15:41;;;;;;;7.70;7.40;;;20.90;54.70;;;;;;5113938;28;20473;-61
2023/04/08 04:18:09;;;;;;;7.40;7.20;;;20.90;54.80;;;;;;5113416;28;20874;-63
2023/04/08 04:20:39;;;;;;;6.90;6.80;;;20.90;54.80;;;;;;5113742;28;20450;-62
2023/04/08 04:23:06;;;;;;;7.10;7.00;;;20.90;54.80;;;;;;5113643;28;20469;-63
2023/04/08 04:25:33;;;;;;;7.80;7.60;;;20.90;54.70;;;;;;5113506;28;20449;-62
2023/04/08 04:28:00;;;;;;;8.10;7.80;;;20.90;54.80;;;;;;5113410;28;20481;-62
2023/04/08 04:30:27;;;;;;;8.10;7.90;;;20.90;54.80;;;;;;5113589;28;20441;-62
2023/04/08 04:32:55;;;;;;;7.80;7.60;;;20.90;54.70;;;;;;5113536;28;20524;-62
2023/04/08 04:35:23;;;;;;;7.80;7.60;;;21.00;54.90;;;;;;5113032;28;20999;-62
2023/04/08 04:37:50;;;;;;;8.97;8.50;;;21.00;55.10;;;;;;5113196;28;20883;-62
2023/04/08 04:40:17;;;;;;;9.53;9.23;;;21.00;55.40;;;;;;5113351;28;20441;-63
2023/04/08 04:42:44;;;;;;;9.30;9.00;;;21.00;56.30;;;;;;5113288;28;20477;-59
2023/04/08 04:45:12;;;;;;;9.43;9.13;;;21.10;56.80;;;;;;5113310;28;20473;-58
2023/04/08 04:47:39;;;;;;;9.47;9.07;;;21.10;56.50;;;;;;5099743;28;20473;-60
2023/04/08 04:50:06;;;;;;;8.97;8.67;;;21.20;56.80;;;;;;5092802;28;20966;-61
2023/04/08 04:52:36;;;;;;;8.67;8.37;;;21.20;57.40;;;;;;5092829;28;20565;-63
2023/04/08 04:55:03;;;;;;;8.93;8.53;;;21.20;57.80;;;;;;5093086;28;20904;-60
2023/04/08 04:57:30;;;;;;;10.10;9.70;;;21.20;58.20;;;;;;5092525;28;20997;-63
2023/04/08 04:59:57;;;;;;;9.50;9.10;;;21.30;58.40;;;;;;5092583;28;20446;-60
2023/04/08 05:02:24;;;;;;;8.73;8.53;;;21.30;58.50;;;;;;5092600;28;20470;-60
2023/04/08 05:04:52;;;;;;;9.30;8.90;;;21.40;58.60;;;;;;5092172;28;20469;-61
2023/04/08 05:07:19;;;;;;;9.10;8.80;;;21.40;58.50;;;;;;5092358;28;20537;-59
2023/04/08 05:09:47;;;;;;;9.30;8.90;;;21.40;58.50;;;;;;5105983;28;20801;-58
2023/04/08 05:12:15;;;;;;;9.70;9.30;;;21.50;58.80;;;;;;5112808;28;20564;-59
2023/04/08 05:14:42;;;;;;;8.97;8.77;;;21.50;58.50;;;;;;5112728;28;20469;-58
2023/04/08 05:17:09;;;;;;;8.87;8.60;;;21.50;58.20;;;;;;5112192;28;20471;-57
2023/04/08 05:19:36;;;;;;;9.13;8.73;;;21.50;58.10;;;;;;5112721;28;20520;-58
2023/04/08 05:22:03;;;;;;;8.33;8.13;;;21.50;57.90;;;;;;5112595;28;20449;-59
2023/04/08 05:24:30;;;;;;;9.07;8.70;;;21.50;57.80;;;;;;5112548;28;20526;-57
2023/04/08 05:27:00;;;;;;;8.97;8.67;;;21.60;57.80;;;;;;5093880;28;20864;-58
2023/04/08 05:29:27;;;;;;;9.20;9.00;;;21.60;57.80;;;;;;5092193;28;20446;-58
2023/04/08 05:31:55;;;;;;;8.50;8.30;;;21.60;57.80;;;;;;5091992;28;20486;-58
2023/04/08 05:34:22;;;;;;;8.73;8.43;;;21.60;57.80;;;;;;5109749;22;20905;-54
2023/04/08 05:36:50;;;;;;;9.27;9.03;;;21.60;57.80;;;;;;5088028;28;20450;-55
2023/04/08 05:39:17;;;;;;;9.30;9.10;;;21.60;57.80;;;;;;5073128;28;20807;-53
2023/04/08 05:41:44;;;;;;;8.80;8.60;;;21.60;57.70;;;;;;5072862;28;20435;-58
2023/04/08 05:44:13;;;;;;;10.73;10.23;;;21.70;57.70;;;;;;5072903;28;20553;-52
2023/04/08 05:46:40;;;;;;;9.80;9.20;;;21.70;57.90;;;;;;5072940;28;20447;-57
2023/04/08 05:49:07;;;;;;;9.03;8.73;;;21.70;57.60;;;;;;5092921;28;20477;-54
2023/04/08 05:51:34;;;;;;;9.50;9.20;;;21.70;57.60;;;;;;5092943;28;21041;-55
2023/04/08 05:54:01;;;;;;;8.60;8.40;;;21.80;57.60;;;;;;5092905;28;20890;-55
2023/04/08 05:56:28;;;;;;;9.90;9.60;;;21.80;57.40;;;;;;5093030;28;20496;-57
2023/04/08 05:58:55;;;;;;;9.87;9.63;;;21.80;57.50;;;;;;5093311;28;20438;-60
2023/04/08 06:01:24;;;;;;;9.13;8.83;;;21.80;57.90;;;;;;5092796;28;20454;-58
2023/04/08 06:03:52;;;;;;;9.40;9.20;;;21.90;57.80;;;;;;5092514;28;20505;-58
2023/04/08 06:06:19;;;;;;;10.10;9.80;;;22.00;57.70;;;;;;5092621;28;20804;-56
2023/04/08 06:08:46;;;;;;;10.13;9.83;;;22.00;57.50;;;;;;5092681;28;20443;-59
2023/04/08 06:11:13;;;;;;;9.60;9.30;;;22.10;57.40;;;;;;5092258;28;20485;-57
2023/04/08 06:13:41;;;;;;;9.77;9.37;;;22.10;57.20;;;;;;5092690;28;20500;-59
2023/04/08 06:16:11;;;;;;;9.50;9.00;;;22.20;57.10;;;;;;5093154;28;20450;-56
2023/04/08 06:18:40;;;;;;;10.80;10.13;;;22.20;57.00;;;;;;5092358;28;20438;-55
2023/04/08 06:21:07;;;;;;;9.60;9.30;;;22.20;56.80;;;;;;5092472;28;20443;-56
2023/04/08 06:23:34;;;;;;;10.23;9.93;;;22.30;56.80;;;;;;5092543;28;20477;-56
2023/04/08 06:26:01;;;;;;;10.00;9.70;;;22.30;56.70;;;;;;5092539;28;20951;-55
2023/04/08 06:28:29;;;;;;;11.20;10.80;;;22.30;56.60;;;;;;5092190;28;20952;-59
2023/04/08 06:30:56;;;;;;;9.60;9.40;;;22.30;56.50;;;;;;5092855;28;20445;-57
2023/04/08 06:33:23;;;;;;;9.97;9.60;;;22.40;56.80;;;;;;5092045;28;20479;-57
2023/04/08 06:35:52;;;;;;;9.50;9.20;;;22.40;56.50;;;;;;5092495;28;20485;-55
2023/04/08 06:38:18;;;;;;;10.20;9.90;;;22.40;56.30;;;;;;5092497;28;20929;-53
2023/04/08 06:40:45;;;;;;;9.90;9.60;;;22.40;56.00;;;;;;5095448;28;20488;-56
2023/04/08 06:43:12;;;;;;;10.83;10.43;;;22.40;55.90;;;;;;5079629;28;20471;-59
2023/04/08 06:45:41;;;;;;;10.00;9.70;;;22.40;56.30;;;;;;5076314;28;20503;-55
2023/04/08 06:48:08;;;;;;;9.70;9.40;;;22.50;56.40;;;;;;5076192;28;20461;-55
2023/04/08 06:50:35;;;;;;;10.43;10.03;;;22.50;56.20;;;;;;5076049;28;20508;-63
2023/04/08 06:53:04;;;;;;;9.93;9.63;;;22.60;56.20;;;;;;5076008;28;20485;-52
2023/04/08 06:55:31;;;;;;;10.03;9.63;;;22.50;55.70;;;;;;5075774;28;20581;-54
2023/04/08 06:57:57;;;;;;;9.97;9.63;;;22.50;55.70;;;;;;5075780;28;20439;-56
2023/04/08 07:00:24;;;;;;;10.97;10.57;;;22.50;56.00;;;;;;5076401;28;20470;-58
2023/04/08 07:02:51;;;;;;;10.87;10.43;;;22.50;56.10;;;;;;5075855;28;20475;-60
2023/04/08 07:05:18;;;;;;;10.90;10.50;;;22.50;56.10;;;;;;5076814;28;20494;-59
2023/04/08 07:07:45;;;;;;;10.70;10.20;;;22.50;56.10;;;;;;5096005;28;20478;-61
2023/04/08 07:10:14;;;;;;;11.97;11.50;;;22.50;56.40;;;;;;5095647;28;20482;-58
2023/04/08 07:12:41;;;;;;;12.20;11.70;;;22.50;56.40;;;;;;5095867;28;20482;-63
2023/04/08 07:15:09;;;;;;;11.20;10.70;;;22.40;55.30;;;;;;5095728;28;20454;-60
2023/04/08 07:17:36;;;;;;;10.53;10.13;;;22.40;55.90;;;;;;5086195;28;20454;-59
2023/04/08 07:20:03;;;;;;;11.73;11.17;;;22.40;56.90;;;;;;5075278;28;20453;-60
2023/04/08 07:22:30;;;;;;;11.50;10.90;;;22.40;56.90;;;;;;5075873;28;20871;-57
2023/04/08 07:24:57;;;;;;;11.37;10.97;;;22.40;56.90;;;;;;5075584;28;20506;-54
2023/04/08 07:27:25;;;;;;;12.43;11.93;;;22.50;57.00;;;;;;5081375;28;20485;-59
2023/04/08 07:29:54;;;;;;;12.07;11.57;;;22.40;56.60;;;;;;5095694;28;20489;-57
2023/04/08 07:32:20;;;;;;;11.00;10.60;;;22.50;56.50;;;;;;5095479;28;20486;-57
2023/04/08 07:34:47;;;;;;;11.67;11.07;;;22.50;56.40;;;;;;5095060;28;20477;-52
2023/04/08 07:37:14;;;;;;;11.43;10.93;;;22.50;56.30;;;;;;5075721;28;20451;-57
2023/04/08 07:39:41;;;;;;;11.87;11.33;;;22.40;56.20;;;;;;5074968;28;20467;-60
2023/04/08 07:42:08;;;;;;;12.47;11.97;;;22.50;56.20;;;;;;5075218;28;20867;-59
2023/04/08 07:44:37;;;;;;;12.00;11.50;;;22.50;56.40;;;;;;5075096;28;20459;-60
2023/04/08 07:47:04;;;;;;;12.23;11.73;;;22.50;56.20;;;;;;5090720;28;21008;-59
2023/04/08 07:49:30;;;;;;;12.50;12.00;;;22.50;56.20;;;;;;5095246;28;20881;-57
2023/04/08 07:51:57;;;;;;;11.87;11.37;;;22.50;56.20;;;;;;5094446;28;20514;-56
2023/04/08 07:54:24;;;;;;;11.33;10.83;;;22.50;56.90;;;;;;5094984;28;20549;-55
2023/04/08 07:56:51;;;;;;;12.07;11.57;;;22.60;56.80;;;;;;5094702;28;20473;-54
2023/04/08 07:59:18;;;;;;;11.50;11.03;;;22.60;56.80;;;;;;5095041;28;20865;-57
2023/04/08 08:01:46;;;;;;;12.20;11.60;;;22.70;56.80;;;;;;5094875;28;20470;-57
2023/04/08 08:04:13;;;;;;;12.63;11.93;;;22.70;56.40;;;;;;5094915;28;20466;-55
2023/04/08 08:06:40;;;;;;;12.67;12.07;;;22.70;56.00;;;;;;5094617;28;20478;-56
2023/04/08 08:09:07;;;;;;;12.50;11.90;;;22.80;56.20;;;;;;5084234;28;20482;-58
2023/04/08 08:11:34;;;;;;;13.03;12.37;;;22.80;55.50;;;;;;5094192;28;20484;-63
2023/04/08 08:14:01;;;;;;;12.60;12.00;;;22.70;55.20;;;;;;5084245;28;20494;-59
2023/04/08 08:16:29;;;;;;;11.53;11.03;;;22.60;55.40;;;;;;5089883;28;20478;-60
2023/04/08 08:18:57;;;;;;;12.83;12.13;;;22.60;55.90;;;;;;5094488;28;20888;-61
2023/04/08 08:21:25;;;;;;;11.70;11.20;;;22.60;56.20;;;;;;5094270;28;20527;-61
2023/04/08 08:23:53;;;;;;;12.73;12.03;;;22.60;56.40;;;;;;5094631;28;20494;-58
2023/04/08 08:26:20;;;;;;;12.80;12.10;;;22.60;56.20;;;;;;5094635;28;20496;-60
2023/04/08 08:28:47;;;;;;;13.20;12.43;;;22.60;55.90;;;;;;5094092;28;20534;-60
2023/04/08 08:31:14;;;;;;;12.73;12.03;;;22.60;56.00;;;;;;5092937;28;20470;-61
2023/04/08 08:33:41;;;;;;;13.20;12.50;;;22.60;55.90;;;;;;5074086;28;20494;-62
2023/04/08 08:36:09;;;;;;;13.30;12.63;;;22.70;55.90;;;;;;5074715;28;20843;-61
2023/04/08 08:38:36;;;;;;;12.27;11.67;;;22.70;55.90;;;;;;5085215;28;20501;-60
2023/04/08 08:41:03;;;;;;;13.20;12.40;;;22.80;55.70;;;;;;5093638;28;20485;-61
2023/04/08 08:43:32;;;;;;;11.53;11.03;;;22.80;55.70;;;;;;5093779;28;20803;-57
2023/04/08 08:45:59;;;;;;;12.80;12.20;;;22.80;55.70;;;;;;5093864;28;20445;-58
2023/04/08 08:48:26;;;;;;;16.00;15.10;;;22.80;55.10;;;;;;5076754;28;20486;-60
2023/04/08 08:50:53;;;;;;;12.43;11.73;;;22.70;55.00;;;;;;5073696;28;20952;-58
2023/04/08 08:53:22;;;;;;;12.67;12.07;;;22.70;55.70;;;;;;5073318;28;20483;-60
2023/04/08 08:55:49;;;;;;;12.07;11.57;;;22.60;56.00;;;;;;5073615;28;20443;-59
2023/04/08 08:58:16;;;;;;;13.27;12.67;;;22.70;56.10;;;;;;5087438;28;20477;-58
2023/04/08 09:00:43;;;;;;;13.37;12.70;;;22.60;56.00;;;;;;5093560;28;20480;-58
2023/04/08 09:03:18;;;;;;;15.17;14.23;;;22.60;55.90;;;;;;5093436;28;20438;-56
2023/04/08 09:05:49;;;;;;;15.07;14.17;;;22.60;55.90;;;;;;5094361;28;20449;-59
2023/04/08 09:08:28;;;;;;;13.37;12.73;;;22.60;55.90;;;;;;5080802;28;20454;-58
2023/04/08 09:10:56;;;;;;;14.23;13.53;;;22.60;55.90;;;;;;5074632;28;20881;-57
2023/04/08 09:13:24;;;;;;;13.60;12.90;;;22.60;55.90;;;;;;5075815;28;21021;-56
2023/04/08 09:16:07;;;;;;;13.80;13.13;;;22.60;55.50;;;;;;5084665;28;20957;-59
2023/04/08 09:18:35;;;;;;;13.70;13.10;;;22.50;55.50;;;;;;5093501;28;20460;-60
2023/04/08 09:21:02;;;;;;;14.23;13.53;;;22.60;56.30;;;;;;5102830;28;20959;-58
2023/04/08 09:23:42;;;;;;;14.13;13.53;;;22.60;56.70;;;;;;5101190;28;20446;-60
2023/04/08 09:26:10;;;;;;;13.00;12.40;;;22.70;56.80;;;;;;5084143;28;20812;-56
2023/04/08 09:28:38;;;;;;;14.13;13.43;;;22.70;56.30;;;;;;5083618;28;20485;-59
2023/04/08 09:31:21;;;;;;;14.33;13.63;;;22.70;55.80;;;;;;5076037;28;20843;-58
2023/04/08 09:33:49;;;;;;;12.90;12.20;;;22.70;55.90;;;;;;5072818;28;20510;-60
2023/04/08 09:36:17;;;;;;;13.33;12.73;;;22.70;56.50;;;;;;5073503;28;20475;-58
2023/04/08 09:38:45;;;;;;;14.30;13.53;;;22.70;56.30;;;;;;5072846;28;20451;-60
2023/04/08 09:41:14;;;;;;;17.17;16.07;;;22.80;56.30;;;;;;5073216;28;20508;-59
2023/04/08 09:43:48;;;;;;;16.43;15.40;;;22.70;54.70;;;;;;5087289;28;20465;-56
2023/04/08 09:46:16;;;;;;;16.17;15.40;;;22.70;54.60;;;;;;5086538;28;20456;-53
2023/04/08 09:48:50;;;;;;;15.27;14.37;;;22.60;54.80;;;;;;5071467;28;20438;-59
2023/04/08 09:51:20;;;;;;;16.93;15.83;;;22.60;55.00;;;;;;5073136;28;20449;-58
2023/04/08 09:53:55;;;;;;;17.37;16.27;;;22.60;55.00;;;;;;5072712;28;20483;-57
2023/04/08 09:56:22;;;;;;;16.23;15.23;;;22.60;54.70;;;;;;5073083;28;20822;-62
2023/04/08 09:58:54;;;;;;;15.70;14.80;;;22.60;54.70;;;;;;5077701;28;20503;-59
2023/04/08 10:01:26;;;;;;;17.97;16.67;;;22.60;55.10;;;;;;5092352;28;20450;-62
2023/04/08 10:03:55;;;;;;;15.73;14.77;;;22.50;54.50;;;;;;5093120;28;20455;-62
2023/04/08 10:06:28;;;;;;;15.00;14.00;;;22.50;54.50;;;;;;5092378;28;20824;-60
2023/04/08 10:08:56;;;;;;;16.20;15.37;;;22.50;55.10;;;;;;5092385;28;20944;-62
2023/04/08 10:11:24;;;;;;;17.00;16.00;;;22.40;55.30;;;;;;5092781;28;20480;-61
2023/04/08 10:13:51;;;;;;;16.43;15.27;;;22.40;55.20;;;;;;5095458;28;20849;-60
2023/04/08 10:16:24;;;;;;;16.63;15.63;;;22.40;55.30;;;;;;5099211;28;20528;-61
2023/04/08 10:18:54;;;;;;;14.70;13.90;;;22.40;55.10;;;;;;5084923;28;20964;-63
2023/04/08 10:21:35;;;;;;;16.23;15.33;;;22.40;55.10;;;;;;5078847;28;20481;-56
2023/04/08 10:24:06;;;;;;;16.07;15.00;;;22.40;54.90;;;;;;5081364;28;20505;-58
2023/04/08 10:26:39;;;;;;;15.93;14.83;;;22.40;54.90;;;;;;5099048;28;20469;-59
2023/04/08 10:29:31;;;;;;;15.80;14.83;;;22.40;55.00;;;;;;5098945;28;20854;-57
2023/04/08 10:32:00;;;;;;;15.73;14.60;;;22.30;55.20;;;;;;5099235;28;20921;-58
2023/04/08 10:34:27;;;;;;;15.47;14.57;;;22.40;55.20;;;;;;5098039;28;20474;-59
2023/04/08 10:36:57;;;;;;;16.30;15.30;;;22.40;55.50;;;;;;5098961;28;20675;-58
2023/04/08 10:39:27;;;;;;;16.77;15.67;;;22.40;54.80;;;;;;5099159;28;20945;-59
2023/04/08 10:41:54;;;;;;;17.97;16.70;;;22.40;55.10;;;;;;5099305;28;20442;-56
2023/04/08 10:44:22;;;;;;;18.50;17.00;;;22.40;55.20;;;;;;5098981;28;20557;-59
2023/04/08 10:46:50;;;;;;;18.43;16.97;;;22.40;55.40;;;;;;5098930;28;20450;-60
2023/04/08 10:49:18;;;;;;;18.63;17.00;;;22.40;55.90;;;;;;5099392;28;20442;-58
2023/04/08 10:51:45;;;;;;;21.13;19.13;;;22.40;56.50;;;;;;5099226;28;20497;-62
2023/04/08 10:54:13;;;;;;;22.27;18.27;;;22.40;59.60;;;;;;5098801;28;20513;-61
2023/04/08 10:56:46;;;;;;;20.67;18.53;;;22.40;64.80;;;;;;5058643;28;20444;-60
2023/04/08 10:59:15;;;;;;;22.57;19.43;;;22.40;68.10;;;;;;5058443;28;20469;-60
2023/04/08 11:01:44;;;;;;;20.93;19.20;;;22.40;68.00;;;;;;5058858;28;20440;-61
2023/04/08 11:04:17;;;;;;;22.77;20.70;;;22.40;67.60;;;;;;5058711;28;20466;-62
2023/04/08 11:06:45;;;;;;;21.00;18.80;;;22.40;66.90;;;;;;5078461;28;20500;-59
2023/04/08 11:09:13;;;;;;;19.70;17.87;;;22.30;66.30;;;;;;5078800;28;20508;-58
2023/04/08 11:11:42;;;;;;;20.90;18.80;;;22.30;65.90;;;;;;5078570;28;20995;-57
2023/04/08 11:14:10;;;;;;;20.27;18.40;;;22.40;65.30;;;;;;5078205;28;20515;-60
2023/04/08 11:16:38;;;;;;;21.53;19.73;;;22.30;64.70;;;;;;5082710;28;20471;-60
2023/04/08 11:19:06;;;;;;;22.50;20.35;;;22.30;63.90;;;;;;5082537;28;20847;-58
2023/04/08 11:21:37;;;;;;;22.60;20.63;;;22.30;63.90;;;;;;5099103;28;20235;-60
2023/04/08 11:24:08;;;;;;;20.37;18.43;;;22.40;63.40;;;;;;5098551;28;20516;-57
2023/04/08 11:26:36;;;;;;;21.70;20.10;;;22.40;63.20;;;;;;5092923;28;20453;-56
2023/04/08 11:29:05;;;;;;;21.07;19.37;;;22.40;63.00;;;;;;5095488;28;20477;-59
2023/04/08 11:31:34;;;;;;;20.93;18.90;;;22.40;62.70;;;;;;5095231;28;20489;-59
2023/04/08 11:34:01;;;;;;;20.60;18.60;;;22.40;62.50;;;;;;5137651;22;20478;-64
2023/04/08 11:36:30;;;;;;;19.97;18.27;;;22.40;62.20;;;;;;5100727;28;20438;-64
2023/04/08 11:38:57;;;;;;;20.00;18.23;;;22.30;62.00;;;;;;5102896;28;20818;-67
2023/04/08 11:41:23;;;;;;;20.40;19.00;;;22.30;62.00;;;;;;5114351;28;20870;-65
2023/04/08 11:43:57;;;;;;;21.17;19.40;;;22.30;61.70;;;;;;5114241;28;20430;-66
2023/04/08 11:46:24;;;;;;;20.10;18.30;;;22.30;61.50;;;;;;5114492;28;20480;-65
2023/04/08 11:49:03;;;;;;;19.40;18.00;;;22.30;61.30;;;;;;5114258;28;20433;-67
2023/04/08 11:51:30;;;;;;;20.87;19.17;;;22.30;61.00;;;;;;5114510;28;20437;-64
2023/04/08 11:53:57;;;;;;;19.83;18.03;;;22.30;60.50;;;;;;5094568;28;20478;-64
2023/04/08 11:56:25;;;;;;;19.07;17.60;;;22.30;59.90;;;;;;5093990;28;20489;-65
2023/04/08 11:58:52;;;;;;;19.87;18.20;;;22.30;59.70;;;;;;5093696;28;20533;-65
2023/04/08 12:01:20;;;;;;;18.60;17.07;;;22.30;59.80;;;;;;5093908;28;20537;-67
2023/04/08 12:04:00;;;;;;;17.57;16.33;;;22.30;59.80;;;;;;5093769;28;20966;-67
2023/04/08 12:06:27;;;;;;;20.83;19.17;;;22.30;59.70;;;;;;5095228;28;21005;-69
2023/04/08 12:08:56;;;;;;;20.97;19.50;;;22.30;59.80;;;;;;5114168;28;20488;-67
2023/04/08 12:11:24;;;;;;;24.17;22.23;;;22.30;61.20;;;;;;5114155;28;20858;-66
2023/04/08 12:13:51;;;;;;;22.33;20.70;;;22.30;62.10;;;;;;5113857;28;21020;-66
2023/04/08 12:16:20;;;;;;;22.60;20.77;;;22.30;62.50;;;;;;5097205;28;20447;-66
2023/04/08 12:18:47;;;;;;;24.30;22.10;;;22.20;62.50;;;;;;5101933;28;20536;-66
2023/04/08 12:21:15;;;;;;;21.03;19.60;;;22.30;62.80;;;;;;5091173;28;20488;-68
2023/04/08 12:23:42;;;;;;;21.63;20.23;;;22.30;62.10;;;;;;5097622;28;20529;-64
2023/04/08 12:26:10;;;;;;;21.30;19.70;;;22.30;62.00;;;;;;5090415;28;20477;-63
2023/04/08 12:28:37;;;;;;;21.73;19.93;;;22.30;61.40;;;;;;5113404;28;20437;-67
2023/04/08 12:31:04;;;;;;;18.80;17.57;;;22.40;61.40;;;;;;5099052;28;20474;-67
2023/04/08 12:33:31;;;;;;;20.77;18.90;;;22.30;61.00;;;;;;5093546;28;20478;-66
2023/04/08 12:35:59;;;;;;;22.80;20.83;;;22.30;61.00;;;;;;5107614;28;20501;-63
2023/04/08 12:38:27;;;;;;;23.03;21.20;;;22.30;59.70;;;;;;5112896;28;20421;-62
2023/04/08 12:40:55;;;;;;;21.67;20.37;;;22.30;59.30;;;;;;5113594;28;20433;-61
2023/04/08 12:43:22;;;;;;;21.60;20.30;;;22.30;59.70;;;;;;5113445;28;20469;-60